createdAt,value
2023-08-07T00:00:49.886Z,12.15
2023-08-07T00:01:50.132Z,12.12
2023-08-07T00:02:49.419Z,12.13
2023-08-07T00:03:49.687Z,12.12
2023-08-07T00:04:49.958Z,12.13
2023-08-07T00:05:50.163Z,12.16
2023-08-07T00:06:50.432Z,12.12
2023-08-07T00:07:49.716Z,12.16
2023-08-07T00:08:50.020Z,12.18
2023-08-07T00:09:49.705Z,12.18
2023-08-07T00:10:49.501Z,12.19
2023-08-07T00:11:49.806Z,12.21
2023-08-07T00:12:50.067Z,12.21
2023-08-07T00:13:50.241Z,12.21
2023-08-07T00:14:49.572Z,12.30
2023-08-07T00:15:49.903Z,12.23
2023-08-07T00:16:50.040Z,12.25
2023-08-07T00:17:49.345Z,12.26
2023-08-07T00:18:49.560Z,12.25
2023-08-07T00:19:49.933Z,12.26
2023-08-07T00:20:49.042Z,12.26
2023-08-07T00:21:49.322Z,12.25
2023-08-07T00:22:50.546Z,12.26
2023-08-07T00:23:50.803Z,12.26
2023-08-07T00:24:49.027Z,12.23
2023-08-07T00:25:49.335Z,12.26
2023-08-07T00:26:50.490Z,12.26
2023-08-07T00:27:49.796Z,12.26
2023-08-07T00:28:49.021Z,12.26
2023-08-07T00:29:49.434Z,12.26
2023-08-07T00:30:50.514Z,12.25
2023-08-07T00:31:48.813Z,12.26
2023-08-07T00:32:49.103Z,12.26
2023-08-07T00:33:50.276Z,12.25
2023-08-07T00:34:49.556Z,12.25
2023-08-07T00:35:48.829Z,12.22
2023-08-07T00:36:49.170Z,12.22
2023-08-07T00:37:49.337Z,12.22
2023-08-07T00:38:49.586Z,12.18
2023-08-07T00:39:48.824Z,12.16
2023-08-07T00:40:49.086Z,12.16
2023-08-07T00:41:49.342Z,12.15
2023-08-07T00:42:49.648Z,12.15
2023-08-07T00:43:48.856Z,12.13
2023-08-07T00:44:49.281Z,12.15
2023-08-07T00:45:50.339Z,12.15
2023-08-07T00:46:49.588Z,12.16
2023-08-07T00:47:49.885Z,12.15
2023-08-07T00:48:49.135Z,12.15
2023-08-07T00:49:50.294Z,12.15
2023-08-07T00:50:48.568Z,12.15
2023-08-07T00:51:48.870Z,12.15
2023-08-07T00:52:49.065Z,12.13
2023-08-07T00:53:49.372Z,12.12
2023-08-07T00:54:48.567Z,12.13
2023-08-07T00:55:48.874Z,12.13
2023-08-07T00:56:49.172Z,12.12
2023-08-07T00:57:49.400Z,12.13
2023-08-07T00:58:48.589Z,12.15
2023-08-07T00:59:48.872Z,12.12
2023-08-07T01:00:49.141Z,12.13
2023-08-07T01:01:50.365Z,12.16
2023-08-07T01:02:48.635Z,12.13
2023-08-07T01:03:49.850Z,12.12
2023-08-07T01:04:50.075Z,12.12
2023-08-07T01:05:49.271Z,12.13
2023-08-07T01:06:48.573Z,12.13
2023-08-07T01:07:48.941Z,12.13
2023-08-07T01:08:50.043Z,12.15
2023-08-07T01:09:49.294Z,12.12
2023-08-07T01:10:49.535Z,12.15
2023-08-07T01:11:48.890Z,12.15
2023-08-07T01:12:49.099Z,12.15
2023-08-07T01:13:49.294Z,12.15
2023-08-07T01:14:49.541Z,12.15
2023-08-07T01:15:48.870Z,12.13
2023-08-07T01:16:50.103Z,12.13
2023-08-07T01:17:49.447Z,12.12
2023-08-07T01:18:48.631Z,12.11
2023-08-07T01:19:49.892Z,12.12
2023-08-07T01:20:49.113Z,12.04
2023-08-07T01:21:49.343Z,12.13
2023-08-07T01:22:49.672Z,12.11
2023-08-07T01:23:49.050Z,12.11
2023-08-07T01:24:48.171Z,12.11
2023-08-07T01:25:49.435Z,12.08
2023-08-07T01:26:49.184Z,12.07
2023-08-07T01:27:49.411Z,12.08
2023-08-07T01:28:48.711Z,12.05
2023-08-07T01:29:49.959Z,12.04
2023-08-07T01:30:48.186Z,12.04
2023-08-07T01:31:48.452Z,12.01
2023-08-07T01:32:48.865Z,12.00
2023-08-07T01:33:49.008Z,12.01
2023-08-07T01:34:48.230Z,12.01
2023-08-07T01:35:48.488Z,12.01
2023-08-07T01:36:48.808Z,12.01
2023-08-07T01:37:47.985Z,12.03
2023-08-07T01:38:48.353Z,12.03
2023-08-07T01:39:48.516Z,12.03
2023-08-07T01:40:49.742Z,12.03
2023-08-07T01:41:48.030Z,12.04
2023-08-07T01:42:48.329Z,12.03
2023-08-07T01:43:48.584Z,12.04
2023-08-07T01:44:48.749Z,12.01
2023-08-07T01:45:49.042Z,12.04
2023-08-07T01:46:49.287Z,12.05
2023-08-07T01:47:48.741Z,12.07
2023-08-07T01:48:47.883Z,12.07
2023-08-07T01:49:48.132Z,12.08
2023-08-07T01:50:49.335Z,12.11
2023-08-07T01:51:48.647Z,12.12
2023-08-07T01:52:48.880Z,12.15
2023-08-07T01:53:49.082Z,12.16
2023-08-07T01:54:48.447Z,12.16
2023-08-07T01:55:47.674Z,12.15
2023-08-07T01:56:47.921Z,12.16
2023-08-07T01:57:48.272Z,12.16
2023-08-07T01:58:48.487Z,12.16
2023-08-07T01:59:48.722Z,12.15
2023-08-07T02:00:49.088Z,12.15
2023-08-07T02:01:48.298Z,12.15
2023-08-07T02:02:48.590Z,12.15
2023-08-07T02:03:48.852Z,12.15
2023-08-07T02:04:49.070Z,12.13
2023-08-07T02:05:49.326Z,12.11
2023-08-07T02:06:48.587Z,12.07
2023-08-07T02:07:48.829Z,12.04
2023-08-07T02:08:48.168Z,12.03
2023-08-07T02:09:49.381Z,12.00
2023-08-07T02:10:48.616Z,12.00
2023-08-07T02:11:48.945Z,11.98
2023-08-07T02:12:48.198Z,11.96
2023-08-07T02:13:47.501Z,11.97
2023-08-07T02:14:48.707Z,11.97
2023-08-07T02:15:48.103Z,11.93
2023-08-07T02:16:49.313Z,11.97
2023-08-07T02:17:49.661Z,11.97
2023-08-07T02:18:47.830Z,11.98
2023-08-07T02:19:49.064Z,11.98
2023-08-07T02:20:47.421Z,12.07
2023-08-07T02:21:48.664Z,12.04
2023-08-07T02:22:48.883Z,12.04
2023-08-07T02:23:49.172Z,12.04
2023-08-07T02:24:48.364Z,12.05
2023-08-07T02:25:48.601Z,12.04
2023-08-07T02:26:48.909Z,12.07
2023-08-07T02:27:49.133Z,12.05
2023-08-07T02:28:48.393Z,12.07
2023-08-07T02:29:48.652Z,12.05
2023-08-07T02:30:48.889Z,12.05
2023-08-07T02:31:48.202Z,12.07
2023-08-07T02:32:47.474Z,12.07
2023-08-07T02:33:48.204Z,12.07
2023-08-07T02:34:48.476Z,12.04
2023-08-07T02:35:47.762Z,12.01
2023-08-07T02:36:48.032Z,12.00
2023-08-07T02:37:48.279Z,11.98
2023-08-07T02:38:48.429Z,12.00
2023-08-07T02:39:48.724Z,11.97
2023-08-07T02:40:48.015Z,11.97
2023-08-07T02:41:47.260Z,11.96
2023-08-07T02:42:48.533Z,11.96
2023-08-07T02:43:48.781Z,11.96
2023-08-07T02:44:47.962Z,11.96
2023-08-07T02:45:47.333Z,11.97
2023-08-07T02:46:48.536Z,11.98
2023-08-07T02:47:49.000Z,11.97
2023-08-07T02:48:48.037Z,11.98
2023-08-07T02:49:48.311Z,11.97
2023-08-07T02:50:48.570Z,11.97
2023-08-07T02:51:48.901Z,12.00
2023-08-07T02:52:48.049Z,11.98
2023-08-07T02:53:48.307Z,12.01
2023-08-07T02:54:47.597Z,12.03
2023-08-07T02:55:47.815Z,12.04
2023-08-07T02:56:47.103Z,12.07
2023-08-07T02:57:47.409Z,12.08
2023-08-07T02:58:48.636Z,12.08
2023-08-07T02:59:46.884Z,12.11
2023-08-07T03:00:47.171Z,12.11
2023-08-07T03:01:48.456Z,12.08
2023-08-07T03:02:48.744Z,12.11
2023-08-07T03:03:47.941Z,12.07
2023-08-07T03:04:47.330Z,12.05
2023-08-07T03:05:48.533Z,12.08
2023-08-07T03:06:46.849Z,12.08
2023-08-07T03:07:48.071Z,12.08
2023-08-07T03:08:48.311Z,12.08
2023-08-07T03:09:48.641Z,12.08
2023-08-07T03:10:46.877Z,12.07
2023-08-07T03:11:47.144Z,12.04
2023-08-07T03:12:47.463Z,12.04
2023-08-07T03:13:46.706Z,12.05
2023-08-07T03:14:47.912Z,12.13
2023-08-07T03:15:48.207Z,12.03
2023-08-07T03:16:47.470Z,12.01
2023-08-07T03:17:47.665Z,12.01
2023-08-07T03:18:48.015Z,11.98
2023-08-07T03:19:47.283Z,11.96
2023-08-07T03:20:47.449Z,11.94
2023-08-07T03:21:47.746Z,11.93
2023-08-07T03:22:48.101Z,11.88
2023-08-07T03:23:48.339Z,11.88
2023-08-07T03:24:47.684Z,11.87
2023-08-07T03:25:46.958Z,11.84
2023-08-07T03:26:48.192Z,11.82
2023-08-07T03:27:47.456Z,11.77
2023-08-07T03:28:47.792Z,11.78
2023-08-07T03:29:48.023Z,11.74
2023-08-07T03:30:47.367Z,11.74
2023-08-07T03:31:47.600Z,11.74
2023-08-07T03:32:46.955Z,11.72
2023-08-07T03:33:47.196Z,11.70
2023-08-07T03:34:46.499Z,11.72
2023-08-07T03:35:46.820Z,11.74
2023-08-07T03:36:48.061Z,11.72
2023-08-07T03:37:47.286Z,11.74
2023-08-07T03:38:46.662Z,11.74
2023-08-07T03:39:47.977Z,11.77
2023-08-07T03:40:47.218Z,11.75
2023-08-07T03:41:46.424Z,11.72
2023-08-07T03:42:46.785Z,11.70
2023-08-07T03:43:48.028Z,11.70
2023-08-07T03:44:47.259Z,11.67
2023-08-07T03:45:46.569Z,11.67
2023-08-07T03:46:46.951Z,11.69
2023-08-07T03:47:48.149Z,11.69
2023-08-07T03:48:47.348Z,11.67
2023-08-07T03:49:47.635Z,11.66
2023-08-07T03:50:47.958Z,11.67
2023-08-07T03:51:46.241Z,11.66
2023-08-07T03:52:46.515Z,11.66
2023-08-07T03:53:46.890Z,11.67
2023-08-07T03:54:47.061Z,11.64
2023-08-07T03:55:46.365Z,11.66
2023-08-07T03:56:46.721Z,11.69
2023-08-07T03:57:46.913Z,11.67
2023-08-07T03:58:47.152Z,11.67
2023-08-07T03:59:46.462Z,11.66
2023-08-07T04:00:46.743Z,11.66
2023-08-07T04:01:45.986Z,11.66
2023-08-07T04:02:46.270Z,11.66
2023-08-07T04:03:47.493Z,11.63
2023-08-07T04:04:47.769Z,11.62
2023-08-07T04:05:46.036Z,11.64
2023-08-07T04:06:46.298Z,11.63
2023-08-07T04:07:47.494Z,11.63
2023-08-07T04:08:46.884Z,11.63
2023-08-07T04:09:46.081Z,11.63
2023-08-07T04:10:46.422Z,11.60
2023-08-07T04:11:46.637Z,11.62
2023-08-07T04:12:46.866Z,11.62
2023-08-07T04:13:46.246Z,11.63
2023-08-07T04:14:47.458Z,11.60
2023-08-07T04:15:47.720Z,11.63
2023-08-07T04:16:46.050Z,11.62
2023-08-07T04:17:47.231Z,11.60
2023-08-07T04:18:46.551Z,11.59
2023-08-07T04:19:46.858Z,11.62
2023-08-07T04:20:46.091Z,11.51
2023-08-07T04:21:46.352Z,11.57
2023-08-07T04:22:46.642Z,11.57
2023-08-07T04:23:46.846Z,11.57
2023-08-07T04:24:47.124Z,11.57
2023-08-07T04:25:47.448Z,11.56
2023-08-07T04:26:46.623Z,11.56
2023-08-07T04:27:46.906Z,11.56
2023-08-07T04:28:46.258Z,11.54
2023-08-07T04:29:46.527Z,11.53
2023-08-07T04:30:45.778Z,11.53
2023-08-07T04:31:46.058Z,11.51
2023-08-07T04:32:47.367Z,11.51
2023-08-07T04:33:46.588Z,11.51
2023-08-07T04:34:46.866Z,11.51
2023-08-07T04:35:47.143Z,11.53
2023-08-07T04:36:47.420Z,11.49
2023-08-07T04:37:46.652Z,11.49
2023-08-07T04:38:46.993Z,11.48
2023-08-07T04:39:47.222Z,11.48
2023-08-07T04:40:45.517Z,11.46
2023-08-07T04:41:45.801Z,11.45
2023-08-07T04:42:47.065Z,11.42
2023-08-07T04:43:46.407Z,11.45
2023-08-07T04:44:45.707Z,11.45
2023-08-07T04:45:45.905Z,11.42
2023-08-07T04:46:46.228Z,11.41
2023-08-07T04:47:46.420Z,11.39
2023-08-07T04:48:46.723Z,11.39
2023-08-07T04:49:45.979Z,11.38
2023-08-07T04:50:47.212Z,11.38
2023-08-07T04:51:45.560Z,11.41
2023-08-07T04:52:45.922Z,11.36
2023-08-07T04:53:46.097Z,11.36
2023-08-07T04:54:45.593Z,11.39
2023-08-07T04:55:45.706Z,11.36
2023-08-07T04:56:46.327Z,11.35
2023-08-07T04:57:45.472Z,11.36
2023-08-07T04:58:46.707Z,11.35
2023-08-07T04:59:47.353Z,11.36
2023-08-07T05:00:47.151Z,11.31
2023-08-07T05:01:46.320Z,11.35
2023-08-07T05:02:45.991Z,11.35
2023-08-07T05:03:46.975Z,11.36
2023-08-07T05:04:46.234Z,11.36
2023-08-07T05:05:45.474Z,11.36
2023-08-07T05:06:45.808Z,11.36
2023-08-07T05:07:46.151Z,11.36
2023-08-07T05:08:46.287Z,11.36
2023-08-07T05:09:45.669Z,11.36
2023-08-07T05:10:45.953Z,11.39
2023-08-07T05:11:45.305Z,11.41
2023-08-07T05:12:45.463Z,11.39
2023-08-07T05:13:46.753Z,11.38
2023-08-07T05:14:45.099Z,11.38
2023-08-07T05:15:45.370Z,11.39
2023-08-07T05:16:46.691Z,11.42
2023-08-07T05:17:45.077Z,11.39
2023-08-07T05:18:45.299Z,11.41
2023-08-07T05:19:46.508Z,11.39
2023-08-07T05:20:46.861Z,11.38
2023-08-07T05:21:45.151Z,11.41
2023-08-07T05:22:46.342Z,11.41
2023-08-07T05:23:45.689Z,11.44
2023-08-07T05:24:44.971Z,11.42
2023-08-07T05:25:46.361Z,11.42
2023-08-07T05:26:46.631Z,11.42
2023-08-07T05:27:44.893Z,11.44
2023-08-07T05:28:46.126Z,11.45
2023-08-07T05:29:45.537Z,11.48
2023-08-07T05:30:44.782Z,11.49
2023-08-07T05:31:45.106Z,11.53
2023-08-07T05:32:46.419Z,11.56
2023-08-07T05:33:46.666Z,11.57
2023-08-07T05:34:44.974Z,11.57
2023-08-07T05:35:45.390Z,11.60
2023-08-07T05:36:45.579Z,11.60
2023-08-07T05:37:44.918Z,11.60
2023-08-07T05:38:45.154Z,11.63
2023-08-07T05:39:46.415Z,11.67
2023-08-07T05:40:44.711Z,11.66
2023-08-07T05:41:45.198Z,11.67
2023-08-07T05:42:46.340Z,11.69
2023-08-07T05:43:44.691Z,11.69
2023-08-07T05:44:44.919Z,11.72
2023-08-07T05:45:45.272Z,11.72
2023-08-07T05:46:46.507Z,11.70
2023-08-07T05:47:44.830Z,11.74
2023-08-07T05:48:45.200Z,11.75
2023-08-07T05:49:46.366Z,11.78
2023-08-07T05:50:44.713Z,11.77
2023-08-07T05:51:44.956Z,11.78
2023-08-07T05:52:45.336Z,11.79
2023-08-07T05:53:44.545Z,11.81
2023-08-07T05:54:45.087Z,11.81
2023-08-07T05:55:45.219Z,11.82
2023-08-07T05:56:44.383Z,11.84
2023-08-07T05:57:44.716Z,11.84
2023-08-07T05:58:45.011Z,11.88
2023-08-07T05:59:45.352Z,11.93
2023-08-07T06:00:44.587Z,11.87
2023-08-07T06:01:45.082Z,11.88
2023-08-07T06:02:45.165Z,11.96
2023-08-07T06:03:44.442Z,11.94
2023-08-07T06:04:44.888Z,11.94
2023-08-07T06:05:45.000Z,11.90
2023-08-07T06:06:46.203Z,11.93
2023-08-07T06:07:44.570Z,11.98
2023-08-07T06:08:44.830Z,11.98
2023-08-07T06:09:45.175Z,12.00
2023-08-07T06:10:44.365Z,12.01
2023-08-07T06:11:44.668Z,12.03
2023-08-07T06:12:44.935Z,12.01
2023-08-07T06:13:44.213Z,12.03
2023-08-07T06:14:44.508Z,12.04
2023-08-07T06:15:44.842Z,12.03
2023-08-07T06:16:45.192Z,12.04
2023-08-07T06:17:44.353Z,12.03
2023-08-07T06:18:45.547Z,12.03
2023-08-07T06:19:44.873Z,12.03
2023-08-07T06:20:44.104Z,12.05
2023-08-07T06:21:44.392Z,12.05
2023-08-07T06:22:45.130Z,12.08
2023-08-07T06:23:45.076Z,12.08
2023-08-07T06:24:44.304Z,12.11
2023-08-07T06:25:44.560Z,12.11
2023-08-07T06:26:44.861Z,12.08
2023-08-07T06:27:44.147Z,12.11
2023-08-07T06:28:44.480Z,12.07
2023-08-07T06:29:44.796Z,12.08
2023-08-07T06:30:44.069Z,12.07
2023-08-07T06:31:44.402Z,12.08
2023-08-07T06:32:44.749Z,12.08
2023-08-07T06:33:44.016Z,12.08
2023-08-07T06:34:44.333Z,12.08
2023-08-07T06:35:45.581Z,12.11
2023-08-07T06:36:43.841Z,12.15
2023-08-07T06:37:44.129Z,12.11
2023-08-07T06:38:44.382Z,12.08
2023-08-07T06:39:44.640Z,12.12
2023-08-07T06:40:45.128Z,12.11
2023-08-07T06:41:44.107Z,12.05
2023-08-07T06:42:45.371Z,12.07
2023-08-07T06:43:44.625Z,12.05
2023-08-07T06:44:43.845Z,12.04
2023-08-07T06:45:44.155Z,12.03
2023-08-07T06:46:44.425Z,12.04
2023-08-07T06:47:44.758Z,12.00
2023-08-07T06:48:43.881Z,11.98
2023-08-07T06:49:44.226Z,11.97
2023-08-07T06:50:44.455Z,11.96
2023-08-07T06:51:43.711Z,11.94
2023-08-07T06:52:44.077Z,11.93
2023-08-07T06:53:44.280Z,11.90
2023-08-07T06:54:44.573Z,11.77
2023-08-07T06:55:43.839Z,11.84
2023-08-07T06:56:45.059Z,11.82
2023-08-07T06:57:44.440Z,11.78
2023-08-07T06:58:44.591Z,11.77
2023-08-07T06:59:44.908Z,11.77
2023-08-07T07:00:44.201Z,11.75
2023-08-07T07:01:44.584Z,11.72
2023-08-07T07:02:43.807Z,11.69
2023-08-07T07:03:44.099Z,11.66
2023-08-07T07:04:44.331Z,11.64
2023-08-07T07:05:43.551Z,11.64
2023-08-07T07:06:43.843Z,11.59
2023-08-07T07:07:44.178Z,11.60
2023-08-07T07:08:44.503Z,11.59
2023-08-07T07:09:43.650Z,11.57
2023-08-07T07:10:43.933Z,11.56
2023-08-07T07:11:44.215Z,11.54
2023-08-07T07:12:43.474Z,11.53
2023-08-07T07:13:43.700Z,11.51
2023-08-07T07:14:44.438Z,11.49
2023-08-07T07:15:44.301Z,11.48
2023-08-07T07:16:43.978Z,11.48
2023-08-07T07:17:44.822Z,11.42
2023-08-07T07:18:45.072Z,11.45
2023-08-07T07:19:44.347Z,11.44
2023-08-07T07:20:43.730Z,11.44
2023-08-07T07:21:44.041Z,11.42
2023-08-07T07:22:43.232Z,11.41
2023-08-07T07:23:43.562Z,11.42
2023-08-07T07:24:43.813Z,11.39
2023-08-07T07:25:44.628Z,11.36
2023-08-07T07:26:43.368Z,11.39
2023-08-07T07:27:43.671Z,11.36
2023-08-07T07:28:43.934Z,11.35
2023-08-07T07:29:43.238Z,11.35
2023-08-07T07:30:43.474Z,11.31
2023-08-07T07:31:43.737Z,11.33
2023-08-07T07:32:44.103Z,11.35
2023-08-07T07:33:43.282Z,11.36
2023-08-07T07:34:43.602Z,11.31
2023-08-07T07:35:43.956Z,11.35
2023-08-07T07:36:44.195Z,11.33
2023-08-07T07:37:43.493Z,11.31
2023-08-07T07:38:45.587Z,11.28
2023-08-07T07:39:43.071Z,11.24
2023-08-07T07:40:43.393Z,11.26
2023-08-07T07:41:44.684Z,11.27
2023-08-07T07:42:43.959Z,11.27
2023-08-07T07:43:44.161Z,11.26
2023-08-07T07:44:43.600Z,11.26
2023-08-07T07:45:44.023Z,11.26
2023-08-07T07:46:43.131Z,11.27
2023-08-07T07:47:44.436Z,11.27
2023-08-07T07:48:43.808Z,11.26
2023-08-07T07:49:42.976Z,11.27
2023-08-07T07:50:43.294Z,11.28
2023-08-07T07:51:43.611Z,11.27
2023-08-07T07:52:43.878Z,11.28
2023-08-07T07:53:44.147Z,11.27
2023-08-07T07:54:44.369Z,11.27
2023-08-07T07:55:43.719Z,11.28
2023-08-07T07:56:43.944Z,11.26
2023-08-07T07:57:43.352Z,11.27
2023-08-07T07:58:43.565Z,11.26
2023-08-07T07:59:42.863Z,11.27
2023-08-07T08:00:43.236Z,11.27
2023-08-07T08:01:43.477Z,11.27
2023-08-07T08:02:43.676Z,11.26
2023-08-07T08:03:43.178Z,11.27
2023-08-07T08:04:43.376Z,11.27
2023-08-07T08:05:43.597Z,11.27
2023-08-07T08:06:42.834Z,11.31
2023-08-07T08:07:43.165Z,11.31
2023-08-07T08:08:43.450Z,11.33
2023-08-07T08:09:43.619Z,11.31
2023-08-07T08:10:43.028Z,11.30
2023-08-07T08:11:43.372Z,11.33
2023-08-07T08:12:43.559Z,11.36
2023-08-07T08:13:42.816Z,11.38
2023-08-07T08:14:55.383Z,11.42
2023-08-07T08:15:44.442Z,11.44
2023-08-07T08:16:42.646Z,11.45
2023-08-07T08:17:43.970Z,11.48
2023-08-07T08:18:43.245Z,11.51
2023-08-07T08:19:50.657Z,11.49
2023-08-07T08:20:43.847Z,11.51
2023-08-07T08:21:44.276Z,11.54
2023-08-07T08:22:43.413Z,11.57
2023-08-07T08:23:43.633Z,11.54
2023-08-07T08:24:43.019Z,11.57
2023-08-07T08:25:43.307Z,11.59
2023-08-07T08:26:42.491Z,11.62
2023-08-07T08:27:42.848Z,11.62
2023-08-07T08:28:43.100Z,11.62
2023-08-07T08:29:42.359Z,11.59
2023-08-07T08:30:42.705Z,11.60
2023-08-07T08:31:43.048Z,11.63
2023-08-07T08:32:43.344Z,11.63
2023-08-07T08:33:42.569Z,11.66
2023-08-07T08:34:42.809Z,11.66
2023-08-07T08:35:44.088Z,11.66
2023-08-07T08:36:42.426Z,11.69
2023-08-07T08:37:42.736Z,11.67
2023-08-07T08:38:42.987Z,11.70
2023-08-07T08:39:42.262Z,11.72
2023-08-07T08:40:42.571Z,11.74
2023-08-07T08:41:42.823Z,11.74
2023-08-07T08:42:43.150Z,11.75
2023-08-07T08:43:42.416Z,11.75
2023-08-07T08:44:42.733Z,11.75
2023-08-07T08:45:43.018Z,11.78
2023-08-07T08:46:42.300Z,11.79
2023-08-07T08:47:42.605Z,11.81
2023-08-07T08:48:42.841Z,11.82
2023-08-07T08:49:43.077Z,11.84
2023-08-07T08:50:42.363Z,11.85
2023-08-07T08:51:42.603Z,11.87
2023-08-07T08:52:42.933Z,11.85
2023-08-07T08:53:43.122Z,11.90
2023-08-07T08:54:42.520Z,11.90
2023-08-07T08:55:42.711Z,11.96
2023-08-07T08:56:43.973Z,11.97
2023-08-07T08:57:42.237Z,12.00
2023-08-07T08:58:42.576Z,11.98
2023-08-07T08:59:42.843Z,12.04
2023-08-07T09:00:43.064Z,12.01
2023-08-07T09:01:43.344Z,12.04
2023-08-07T09:02:43.653Z,12.04
2023-08-07T09:03:42.951Z,12.05
2023-08-07T09:04:42.123Z,12.05
2023-08-07T09:05:42.472Z,12.07
2023-08-07T09:06:44.603Z,12.11
2023-08-07T09:07:42.946Z,12.08
2023-08-07T09:08:43.246Z,12.07
2023-08-07T09:09:43.543Z,12.11
2023-08-07T09:10:42.810Z,12.12
2023-08-07T09:11:42.534Z,12.16
2023-08-07T09:12:43.507Z,12.12
2023-08-07T09:13:42.662Z,12.15
2023-08-07T09:14:41.932Z,12.15
2023-08-07T09:15:42.241Z,12.19
2023-08-07T09:16:42.498Z,12.19
2023-08-07T09:17:41.942Z,12.19
2023-08-07T09:18:42.959Z,12.19
2023-08-07T09:19:43.237Z,12.21
2023-08-07T09:20:42.627Z,12.19
2023-08-07T09:21:41.817Z,12.22
2023-08-07T09:22:42.140Z,12.21
2023-08-07T09:23:42.391Z,12.23
2023-08-07T09:24:41.862Z,12.23
2023-08-07T09:25:41.918Z,12.25
2023-08-07T09:26:42.262Z,12.26
2023-08-07T09:27:42.517Z,12.29
2023-08-07T09:28:41.837Z,12.31
2023-08-07T09:29:42.067Z,12.33
2023-08-07T09:30:42.397Z,12.37
2023-08-07T09:31:42.568Z,12.36
2023-08-07T09:32:41.950Z,12.36
2023-08-07T09:33:42.115Z,12.36
2023-08-07T09:34:42.466Z,12.40
2023-08-07T09:35:42.634Z,12.41
2023-08-07T09:36:42.051Z,12.43
2023-08-07T09:37:42.209Z,12.46
2023-08-07T09:38:43.445Z,12.51
2023-08-07T09:39:41.724Z,12.49
2023-08-07T09:40:41.799Z,12.56
2023-08-07T09:41:42.086Z,12.54
2023-08-07T09:42:43.353Z,12.56
2023-08-07T09:43:41.591Z,12.56
2023-08-07T09:44:41.916Z,12.58
2023-08-07T09:45:42.123Z,12.59
2023-08-07T09:46:41.384Z,12.59
2023-08-07T09:47:41.635Z,12.63
2023-08-07T09:48:41.884Z,12.67
2023-08-07T09:49:42.207Z,12.66
2023-08-07T09:50:41.407Z,12.63
2023-08-07T09:51:41.703Z,12.63
2023-08-07T09:52:42.898Z,12.70
2023-08-07T09:53:42.206Z,12.69
2023-08-07T09:54:41.524Z,12.70
2023-08-07T09:55:42.676Z,12.70
2023-08-07T09:56:41.988Z,12.76
2023-08-07T09:57:41.232Z,12.81
2023-08-07T09:58:42.507Z,12.80
2023-08-07T09:59:42.790Z,12.81
2023-08-07T10:00:42.257Z,12.88
2023-08-07T10:01:42.319Z,12.88
2023-08-07T10:02:41.670Z,12.89
2023-08-07T10:03:42.262Z,12.91
2023-08-07T10:04:42.069Z,12.94
2023-08-07T10:05:41.410Z,12.98
2023-08-07T10:06:42.613Z,12.99
2023-08-07T10:07:41.826Z,13.01
2023-08-07T10:08:42.008Z,13.04
2023-08-07T10:09:41.383Z,13.10
2023-08-07T10:10:41.633Z,13.07
2023-08-07T10:11:41.807Z,13.10
2023-08-07T10:12:42.098Z,13.12
2023-08-07T10:13:41.311Z,13.10
2023-08-07T10:14:41.656Z,13.12
2023-08-07T10:15:41.895Z,13.16
2023-08-07T10:16:42.042Z,13.16
2023-08-07T10:17:41.421Z,13.21
2023-08-07T10:18:41.622Z,13.24
2023-08-07T10:19:42.843Z,13.29
2023-08-07T10:20:41.097Z,13.32
2023-08-07T10:21:42.456Z,13.31
2023-08-07T10:22:42.638Z,13.36
2023-08-07T10:23:41.839Z,13.41
2023-08-07T10:24:41.161Z,13.46
2023-08-07T10:25:41.434Z,13.48
2023-08-07T10:26:41.707Z,13.51
2023-08-07T10:27:40.966Z,13.48
2023-08-07T10:28:42.130Z,13.53
2023-08-07T10:29:41.461Z,13.54
2023-08-07T10:30:41.709Z,13.50
2023-08-07T10:31:41.929Z,13.47
2023-08-07T10:32:41.238Z,13.46
2023-08-07T10:33:42.470Z,13.46
2023-08-07T10:34:41.722Z,13.41
2023-08-07T10:35:40.932Z,13.39
2023-08-07T10:36:41.212Z,13.36
2023-08-07T10:37:41.520Z,13.38
2023-08-07T10:38:40.607Z,13.39
2023-08-07T10:39:40.856Z,13.41
2023-08-07T10:40:41.155Z,13.44
2023-08-07T10:41:41.460Z,13.48
2023-08-07T10:42:41.574Z,13.51
2023-08-07T10:43:41.844Z,13.53
2023-08-07T10:44:41.098Z,13.55
2023-08-07T10:45:41.435Z,13.59
2023-08-07T10:46:40.702Z,13.63
2023-08-07T10:47:40.990Z,13.69
2023-08-07T10:48:42.087Z,13.71
2023-08-07T10:49:41.347Z,13.75
2023-08-07T10:50:40.644Z,13.81
2023-08-07T10:51:40.888Z,13.86
2023-08-07T10:52:41.134Z,13.87
2023-08-07T10:53:41.376Z,13.90
2023-08-07T10:54:41.553Z,14.01
2023-08-07T10:55:41.835Z,14.05
2023-08-07T10:56:41.240Z,14.09
2023-08-07T10:57:42.344Z,14.12
2023-08-07T10:58:41.556Z,14.20
2023-08-07T10:59:40.839Z,14.26
2023-08-07T11:00:41.084Z,14.30
2023-08-07T11:01:40.397Z,14.42
2023-08-07T11:02:40.780Z,14.56
2023-08-07T11:03:41.828Z,14.54
2023-08-07T11:04:42.136Z,14.60
2023-08-07T11:05:40.345Z,14.56
2023-08-07T11:06:40.670Z,14.57
2023-08-07T11:07:40.943Z,14.60
2023-08-07T11:08:41.138Z,14.64
2023-08-07T11:09:41.292Z,14.69
2023-08-07T11:10:41.646Z,14.71
2023-08-07T11:11:40.918Z,14.74
2023-08-07T11:12:41.224Z,14.82
2023-08-07T11:13:40.352Z,14.86
2023-08-07T11:14:41.678Z,14.93
2023-08-07T11:15:41.879Z,14.90
2023-08-07T11:16:41.080Z,14.91
2023-08-07T11:17:40.437Z,14.94
2023-08-07T11:18:41.746Z,14.86
2023-08-07T11:19:40.908Z,14.98
2023-08-07T11:20:41.028Z,14.91
2023-08-07T11:21:41.344Z,15.00
2023-08-07T11:22:41.552Z,14.98
2023-08-07T11:23:40.889Z,14.95
2023-08-07T11:24:41.169Z,14.95
2023-08-07T11:25:41.290Z,14.98
2023-08-07T11:26:40.598Z,14.95
2023-08-07T11:27:40.921Z,14.98
2023-08-07T11:28:42.583Z,15.04
2023-08-07T11:29:40.343Z,15.07
2023-08-07T11:30:40.690Z,15.22
2023-08-07T11:31:41.882Z,15.38
2023-08-07T11:32:40.151Z,15.41
2023-08-07T11:33:41.299Z,15.40
2023-08-07T11:34:41.062Z,15.38
2023-08-07T11:35:41.823Z,15.38
2023-08-07T11:36:40.065Z,15.37
2023-08-07T11:37:41.264Z,15.35
2023-08-07T11:38:41.535Z,15.37
2023-08-07T11:39:41.732Z,15.38
2023-08-07T11:40:40.943Z,15.41
2023-08-07T11:41:40.230Z,15.48
2023-08-07T11:42:41.502Z,15.48
2023-08-07T11:43:40.667Z,15.68
2023-08-07T11:44:39.887Z,15.84
2023-08-07T11:45:41.036Z,15.88
2023-08-07T11:46:41.280Z,15.98
2023-08-07T11:47:40.554Z,16.01
2023-08-07T11:48:39.748Z,15.99
2023-08-07T11:49:40.904Z,16.10
2023-08-07T11:50:41.164Z,16.11
2023-08-07T11:51:41.355Z,16.11
2023-08-07T11:52:40.600Z,16.06
2023-08-07T11:53:40.824Z,16.07
2023-08-07T11:54:40.961Z,16.07
2023-08-07T11:55:41.289Z,16.16
2023-08-07T11:56:41.411Z,16.23
2023-08-07T11:57:39.669Z,16.33
2023-08-07T11:58:39.904Z,16.29
2023-08-07T11:59:41.044Z,16.44
2023-08-07T12:00:41.819Z,16.57
2023-08-07T12:01:40.527Z,16.66
2023-08-07T12:02:39.682Z,16.80
2023-08-07T12:03:40.955Z,16.92
2023-08-07T12:04:41.085Z,16.92
2023-08-07T12:05:40.380Z,16.91
2023-08-07T12:06:40.564Z,16.96
2023-08-07T12:07:39.788Z,16.92
2023-08-07T12:08:40.956Z,16.82
2023-08-07T12:09:41.191Z,16.77
2023-08-07T12:10:40.367Z,16.67
2023-08-07T12:11:40.574Z,16.59
2023-08-07T12:12:40.797Z,16.54
2023-08-07T12:13:41.020Z,16.52
2023-08-07T12:14:41.253Z,16.51
2023-08-07T12:15:40.490Z,16.48
2023-08-07T12:16:40.738Z,16.51
2023-08-07T12:17:40.074Z,16.55
2023-08-07T12:18:40.166Z,16.55
2023-08-07T12:19:39.360Z,16.66
2023-08-07T12:20:39.597Z,16.80
2023-08-07T12:21:40.799Z,16.87
2023-08-07T12:22:40.673Z,16.91
2023-08-07T12:23:40.185Z,16.96
2023-08-07T12:24:40.593Z,16.99
2023-08-07T12:25:40.722Z,17.03
2023-08-07T12:26:40.947Z,17.17
2023-08-07T12:27:41.161Z,17.30
2023-08-07T12:28:40.299Z,17.47
2023-08-07T12:29:39.597Z,17.47
2023-08-07T12:30:40.792Z,17.51
2023-08-07T12:31:41.019Z,17.65
2023-08-07T12:32:40.158Z,17.68
2023-08-07T12:33:40.428Z,17.77
2023-08-07T12:35:15.097Z,17.87
2023-08-07T12:35:40.913Z,17.98
2023-08-07T12:36:39.064Z,18.07
2023-08-07T12:37:39.357Z,18.11
2023-08-07T12:38:40.485Z,18.09
2023-08-07T12:40:42.102Z,18.02
2023-08-07T12:42:40.280Z,18.13
2023-08-07T12:43:40.591Z,18.20
2023-08-07T12:44:39.816Z,18.23
2023-08-07T12:46:40.318Z,18.31
2023-08-07T12:47:40.560Z,18.20
2023-08-07T12:48:40.795Z,18.20
2023-08-07T12:49:41.088Z,18.20
2023-08-07T12:50:39.279Z,18.23
2023-08-07T12:51:40.480Z,18.32
2023-08-07T12:52:40.827Z,18.35
2023-08-07T12:53:39.935Z,18.28
2023-08-07T12:54:40.129Z,18.14
2023-08-07T12:55:40.552Z,17.96